createdAt,value
2022-12-27T00:02:02.463Z,2.57
2022-12-27T00:06:13.214Z,2.52
2022-12-27T00:10:14.926Z,2.48
2022-12-27T00:14:16.324Z,2.40
2022-12-27T00:18:17.813Z,2.36
2022-12-27T00:22:19.417Z,2.34
2022-12-27T00:26:29.063Z,2.33
2022-12-27T00:30:31.353Z,2.35
2022-12-27T00:34:32.751Z,2.34
2022-12-27T00:38:34.180Z,2.33
2022-12-27T00:42:35.560Z,2.30
2022-12-27T00:46:37.095Z,2.23
2022-12-27T00:50:42.872Z,2.23
2022-12-27T00:54:44.192Z,2.29
2022-12-27T00:58:45.588Z,2.28
2022-12-27T01:02:47.499Z,2.30
2022-12-27T01:06:48.891Z,2.21
2022-12-27T01:10:50.203Z,2.12
2022-12-27T01:14:51.674Z,2.13
2022-12-27T01:18:53.930Z,1.99
2022-12-27T01:22:55.410Z,1.94
2022-12-27T01:26:56.815Z,1.93
2022-12-27T01:30:58.125Z,1.97
2022-12-27T01:34:59.673Z,1.99
2022-12-27T01:39:01.244Z,1.93
2022-12-27T01:43:02.794Z,1.80
2022-12-27T01:47:31.199Z,1.76
2022-12-27T01:51:32.597Z,1.73
2022-12-27T01:55:41.886Z,1.66
2022-12-27T01:59:43.340Z,1.64
2022-12-27T02:04:07.266Z,1.58
2022-12-27T02:08:36.333Z,1.55
2022-12-27T02:12:38.572Z,1.53
2022-12-27T02:16:39.999Z,1.53
2022-12-27T02:21:10.107Z,1.56
2022-12-27T02:25:29.938Z,1.45
2022-12-27T02:29:37.609Z,1.43
2022-12-27T02:33:46.859Z,1.37
2022-12-27T02:37:55.406Z,1.41
2022-12-27T02:42:16.017Z,1.49
2022-12-27T02:46:39.567Z,1.51
2022-12-27T02:51:29.187Z,1.49
2022-12-27T02:56:14.290Z,1.47
2022-12-27T03:00:37.247Z,1.48
2022-12-27T03:04:47.418Z,1.47
2022-12-27T03:09:08.965Z,1.45
2022-12-27T03:13:45.494Z,1.47
2022-12-27T03:17:55.270Z,1.41
2022-12-27T03:22:15.292Z,1.37
2022-12-27T03:26:18.645Z,1.36
2022-12-27T03:30:38.664Z,1.29
2022-12-27T03:34:47.347Z,1.25
2022-12-27T03:38:59.914Z,1.22
2022-12-27T03:43:11.483Z,1.21
2022-12-27T03:47:20.470Z,1.17
2022-12-27T03:51:25.532Z,1.05
2022-12-27T03:55:33.143Z,0.97
2022-12-27T03:59:35.283Z,0.96
2022-12-27T04:03:36.803Z,0.90
2022-12-27T04:07:38.379Z,0.78
2022-12-27T04:11:58.147Z,0.77
2022-12-27T04:16:18.402Z,0.71
2022-12-27T04:20:39.211Z,0.71
2022-12-27T04:24:59.408Z,0.73
2022-12-27T04:29:19.445Z,0.79
2022-12-27T04:33:39.512Z,0.72
2022-12-27T04:37:40.868Z,0.78
2022-12-27T04:42:01.051Z,0.74
2022-12-27T04:46:20.843Z,0.72
2022-12-27T04:50:45.492Z,0.66
2022-12-27T04:54:59.046Z,0.70
2022-12-27T04:59:19.273Z,0.57
2022-12-27T05:03:23.196Z,0.39
2022-12-27T05:07:43.489Z,0.37
2022-12-27T05:12:03.462Z,0.48
2022-12-27T05:16:05.474Z,0.49
2022-12-27T05:20:07.598Z,0.47
2022-12-27T05:24:27.687Z,0.45
2022-12-27T05:28:29.087Z,0.32
2022-12-27T05:32:30.719Z,0.36
2022-12-27T05:36:32.580Z,0.36
2022-12-27T05:40:34.433Z,0.33
2022-12-27T05:44:35.977Z,0.25
2022-12-27T05:48:37.600Z,0.22
2022-12-27T05:52:41.155Z,0.16
2022-12-27T05:56:42.844Z,0.14
2022-12-27T06:00:44.318Z,0.12
2022-12-27T06:04:45.879Z,0.17
2022-12-27T06:08:47.655Z,0.15
2022-12-27T06:12:49.048Z,0.12
2022-12-27T06:16:50.518Z,0.01
2022-12-27T06:20:51.902Z,-0.05
2022-12-27T06:24:53.438Z,-0.03
2022-12-27T06:28:56.588Z,0.01
2022-12-27T06:32:57.962Z,0.02
2022-12-27T06:36:59.514Z,-0.01
2022-12-27T06:41:02.728Z,0.01
2022-12-27T06:45:09.429Z,-0.06
2022-12-27T06:49:11.506Z,-0.07
2022-12-27T06:53:12.831Z,-0.07
2022-12-27T06:57:14.342Z,-0.11
2022-12-27T07:01:21.467Z,-0.16
2022-12-27T07:05:22.964Z,-0.20
2022-12-27T07:09:24.394Z,-0.16
2022-12-27T07:13:25.833Z,-0.07
2022-12-27T07:17:27.198Z,-0.03
2022-12-27T07:21:29.727Z,-0.03
2022-12-27T07:25:32.129Z,-0.02
2022-12-27T07:29:33.728Z,-0.07
2022-12-27T07:33:36.710Z,-0.06
2022-12-27T07:37:38.308Z,0.02
2022-12-27T07:41:39.762Z,0.11
2022-12-27T07:45:41.138Z,0.20
2022-12-27T07:49:42.567Z,0.21
2022-12-27T07:53:44.019Z,0.20
2022-12-27T07:57:45.382Z,0.18
2022-12-27T08:02:04.949Z,0.16
2022-12-27T08:06:08.427Z,0.16
2022-12-27T08:10:10.396Z,0.14
2022-12-27T08:14:11.781Z,0.27
2022-12-27T08:18:13.376Z,0.30
2022-12-27T08:22:15.424Z,0.45
2022-12-27T08:26:16.886Z,0.56
2022-12-27T08:30:18.490Z,0.63
2022-12-27T08:34:20.006Z,0.79
2022-12-27T08:38:21.356Z,0.96
2022-12-27T08:42:22.902Z,1.04
2022-12-27T08:46:24.277Z,0.98
2022-12-27T08:50:26.616Z,1.01
2022-12-27T08:54:28.097Z,1.09
2022-12-27T08:58:29.649Z,1.18
2022-12-27T09:02:31.113Z,1.29
2022-12-27T09:06:32.664Z,1.36
2022-12-27T09:10:34.274Z,1.46
2022-12-27T09:14:35.607Z,1.48
2022-12-27T09:18:38.316Z,1.68
2022-12-27T09:22:39.898Z,1.89
2022-12-27T09:26:41.681Z,2.08
2022-12-27T09:30:44.260Z,2.33
2022-12-27T09:34:45.644Z,2.48
2022-12-27T09:38:48.499Z,2.58
2022-12-27T09:43:19.120Z,2.62
2022-12-27T09:48:03.203Z,2.64
2022-12-27T09:52:22.386Z,2.69
2022-12-27T09:56:46.932Z,2.78
2022-12-27T10:00:52.247Z,2.92
2022-12-27T10:09:23.807Z,3.15
2022-12-27T10:13:35.695Z,3.27
2022-12-27T10:17:53.584Z,3.36
2022-12-27T10:22:23.310Z,3.48
2022-12-27T10:26:25.012Z,3.57
2022-12-27T10:30:28.226Z,3.66
2022-12-27T10:34:29.760Z,3.79
2022-12-27T10:38:35.387Z,3.96
2022-12-27T10:42:44.051Z,4.10
2022-12-27T10:46:51.718Z,4.25
2022-12-27T10:50:57.102Z,4.43
2022-12-27T10:54:58.596Z,4.59
2022-12-27T10:59:16.984Z,4.74
2022-12-27T11:03:18.953Z,4.89
2022-12-27T11:07:20.338Z,5.03
2022-12-27T11:11:24.798Z,5.08
2022-12-27T11:15:29.592Z,5.11
2022-12-27T11:19:30.977Z,5.14
2022-12-27T11:23:44.521Z,5.18
2022-12-27T11:27:48.915Z,5.20
2022-12-27T11:31:52.091Z,5.26
2022-12-27T11:35:56.217Z,5.33
2022-12-27T11:40:20.254Z,5.40
2022-12-27T11:44:32.631Z,5.47
2022-12-27T11:48:40.751Z,5.49
2022-12-27T11:52:53.220Z,5.51
2022-12-27T11:57:08.852Z,5.57
2022-12-27T12:01:32.246Z,5.62
2022-12-27T12:05:50.980Z,5.66
2022-12-27T12:10:21.363Z,5.76
2022-12-27T12:15:00.518Z,5.85
2022-12-27T12:19:17.155Z,5.85
2022-12-27T12:23:53.972Z,5.85
2022-12-27T12:28:47.358Z,5.85
2022-12-27T12:32:59.375Z,5.80
2022-12-27T12:37:15.424Z,5.84
2022-12-27T12:41:35.457Z,5.84
2022-12-27T12:46:01.104Z,5.85
2022-12-27T12:50:21.857Z,5.82
2022-12-27T12:54:48.682Z,5.75
2022-12-27T12:59:13.023Z,5.76
2022-12-27T13:03:39.914Z,5.76
2022-12-27T13:08:01.766Z,5.77
2022-12-27T13:12:16.926Z,5.79
2022-12-27T13:16:33.642Z,5.82
2022-12-27T13:20:55.748Z,5.86
2022-12-27T13:25:13.935Z,5.88
2022-12-27T13:29:55.470Z,5.85
2022-12-27T13:34:34.997Z,5.90
2022-12-27T13:38:48.642Z,5.94
2022-12-27T13:43:12.303Z,5.93
2022-12-27T13:47:42.781Z,5.96
2022-12-27T13:51:46.993Z,5.96
2022-12-27T13:56:52.049Z,5.90
2022-12-27T14:00:50.857Z,5.82
2022-12-27T14:05:26.028Z,5.77
2022-12-27T14:10:06.909Z,5.73
2022-12-27T14:14:12.444Z,5.69
2022-12-27T14:18:32.550Z,5.61
2022-12-27T14:22:54.463Z,5.59
2022-12-27T14:27:46.482Z,5.59
2022-12-27T14:32:08.393Z,5.50
2022-12-27T14:36:47.023Z,5.37
2022-12-27T14:40:57.523Z,5.29
2022-12-27T14:45:13.536Z,5.21
2022-12-27T14:49:33.665Z,5.09
2022-12-27T14:53:53.466Z,5.01
2022-12-27T14:57:54.871Z,5.00
2022-12-27T15:01:56.241Z,4.95
2022-12-27T15:06:04.090Z,4.82
2022-12-27T15:10:20.667Z,4.64
2022-12-27T15:14:46.661Z,4.57
2022-12-27T15:19:08.219Z,4.50
2022-12-27T15:23:31.127Z,4.41
2022-12-27T15:27:42.514Z,4.22
2022-12-27T15:31:59.509Z,4.13
2022-12-27T15:36:14.477Z,4.06
2022-12-27T15:40:34.512Z,3.96
2022-12-27T15:45:10.134Z,3.85
2022-12-27T15:49:46.179Z,3.72
2022-12-27T15:54:08.163Z,3.76
2022-12-27T15:58:20.768Z,3.77
2022-12-27T16:02:28.288Z,3.60
2022-12-27T16:06:35.788Z,3.50
2022-12-27T16:10:39.954Z,3.38
2022-12-27T16:14:43.127Z,3.31
2022-12-27T16:19:11.279Z,3.16
2022-12-27T16:23:12.640Z,3.09
2022-12-27T16:27:28.390Z,2.96
2022-12-27T16:31:31.963Z,2.91
2022-12-27T16:35:33.687Z,2.80
2022-12-27T16:39:54.423Z,2.72
2022-12-27T16:44:01.836Z,2.69
2022-12-27T16:48:47.532Z,2.66
2022-12-27T16:53:07.955Z,2.58
2022-12-27T16:57:24.818Z,2.59
2022-12-27T17:01:26.328Z,2.69
2022-12-27T17:05:36.921Z,2.69
2022-12-27T17:09:40.529Z,2.75
2022-12-27T17:13:57.055Z,2.65
2022-12-27T17:18:09.162Z,2.64
2022-12-27T17:22:15.191Z,2.76
2022-12-27T17:26:33.686Z,2.84
2022-12-27T17:31:04.464Z,2.98
2022-12-27T17:35:31.961Z,2.83
2022-12-27T17:39:52.959Z,2.85
2022-12-27T17:44:24.704Z,2.81
2022-12-27T17:48:30.495Z,2.65
2022-12-27T17:52:50.497Z,2.53
2022-12-27T17:57:19.271Z,2.36
2022-12-27T18:01:20.663Z,2.12
2022-12-27T18:05:30.788Z,1.97
2022-12-27T18:09:39.750Z,1.90
2022-12-27T18:13:50.422Z,1.78
2022-12-27T18:17:58.025Z,1.66
2022-12-27T18:22:01.497Z,1.50
2022-12-27T18:26:13.219Z,1.44
2022-12-27T18:30:15.265Z,1.37
2022-12-27T18:34:33.578Z,1.33
2022-12-27T18:38:40.115Z,1.24
2022-12-27T18:42:44.654Z,1.18
2022-12-27T18:46:50.041Z,1.16
2022-12-27T18:50:53.578Z,1.13
2022-12-27T18:54:55.359Z,1.09
2022-12-27T18:59:16.521Z,1.11
2022-12-27T19:03:20.442Z,1.03
2022-12-27T19:07:22.068Z,0.93
2022-12-27T19:11:29.345Z,0.80
2022-12-27T19:15:43.250Z,0.81
2022-12-27T19:19:51.303Z,0.71
2022-12-27T19:23:52.929Z,0.71
2022-12-27T19:28:09.656Z,0.72
2022-12-27T19:32:11.090Z,0.72
2022-12-27T19:36:13.506Z,0.70
2022-12-27T19:40:15.375Z,0.69
2022-12-27T19:44:17.210Z,0.66
2022-12-27T19:48:18.853Z,0.60
2022-12-27T19:52:26.676Z,0.54
2022-12-27T19:56:28.244Z,0.49
2022-12-27T20:00:29.738Z,0.42
2022-12-27T20:04:31.181Z,0.40
2022-12-27T20:08:36.833Z,0.35
2022-12-27T20:12:38.227Z,0.30
2022-12-27T20:16:40.243Z,0.28
2022-12-27T20:20:42.501Z,0.25
2022-12-27T20:24:44.632Z,0.21
2022-12-27T20:28:46.263Z,0.25
2022-12-27T20:32:47.769Z,0.27
2022-12-27T20:36:49.088Z,0.29
2022-12-27T20:40:50.790Z,0.30
2022-12-27T20:44:52.136Z,0.32
2022-12-27T20:48:54.485Z,0.36
2022-12-27T20:52:56.125Z,0.42
2022-12-27T20:56:57.460Z,0.41
2022-12-27T21:01:15.485Z,0.46
2022-12-27T21:05:17.128Z,0.45
2022-12-27T21:09:18.962Z,0.52
2022-12-27T21:13:20.322Z,0.57
2022-12-27T21:17:22.372Z,0.69
2022-12-27T21:21:28.496Z,0.86
2022-12-27T21:25:30.322Z,0.87
2022-12-27T21:29:31.758Z,1.00
2022-12-27T21:33:33.850Z,1.06
2022-12-27T21:37:35.542Z,1.14
2022-12-27T21:41:39.430Z,1.18
2022-12-27T21:45:40.909Z,1.23
2022-12-27T21:49:42.295Z,1.19
2022-12-27T21:53:44.359Z,1.15
2022-12-27T21:57:45.768Z,1.10
2022-12-27T22:01:50.316Z,1.13
2022-12-27T22:05:53.031Z,1.18
2022-12-27T22:09:54.367Z,1.26
2022-12-27T22:13:56.585Z,1.25
2022-12-27T22:17:58.195Z,1.34
2022-12-27T22:21:59.658Z,1.46
2022-12-27T22:26:01.388Z,1.56
2022-12-27T22:30:04.694Z,1.67
2022-12-27T22:34:06.157Z,1.74
2022-12-27T22:38:07.579Z,1.89
2022-12-27T22:42:09.297Z,1.97
2022-12-27T22:46:12.517Z,2.06
2022-12-27T22:50:14.085Z,2.15
2022-12-27T22:54:15.465Z,2.22
2022-12-27T22:58:17.039Z,2.29
2022-12-27T23:02:18.513Z,2.39
2022-12-27T23:06:21.018Z,2.52
2022-12-27T23:10:22.564Z,2.62
2022-12-27T23:14:23.983Z,2.67
2022-12-27T23:18:26.203Z,2.81
2022-12-27T23:22:27.555Z,2.93
2022-12-27T23:26:29.032Z,3.02
2022-12-27T23:30:30.466Z,3.13
2022-12-27T23:34:31.882Z,3.18
2022-12-27T23:38:33.450Z,3.22
2022-12-27T23:42:34.790Z,3.31
2022-12-27T23:46:36.270Z,3.38
2022-12-27T23:50:37.732Z,3.40
2022-12-27T23:54:39.064Z,3.42
2022-12-27T23:58:40.778Z,3.51
